createdAt,value
2022-08-14T00:00:51.749Z,100428.12
2022-08-14T00:01:55.768Z,100427.29
2022-08-14T00:03:00.284Z,100428.95
2022-08-14T00:04:03.636Z,100425.31
2022-08-14T00:05:11.931Z,100423.67
2022-08-14T00:06:28.511Z,100432.89
2022-08-14T00:07:20.107Z,100432.06
2022-08-14T00:08:45.040Z,100432.06
2022-08-14T00:09:28.194Z,100432.06
2022-08-14T00:10:50.032Z,100437.66
2022-08-14T00:11:38.162Z,100434.86
2022-08-14T00:12:48.010Z,100436.83
2022-08-14T00:13:51.739Z,100436.04
2022-08-14T00:14:56.302Z,100437.66
2022-08-14T00:16:01.287Z,100434.86
2022-08-14T00:17:04.893Z,100434.03
2022-08-14T00:18:10.302Z,100439.64
2022-08-14T00:19:19.169Z,100434.86
2022-08-14T00:20:30.539Z,100438.84
2022-08-14T00:21:31.080Z,100436.04
2022-08-14T00:22:56.820Z,100447.23
2022-08-14T00:23:40.885Z,100438.33
2022-08-14T00:24:44.647Z,100442.78
2022-08-14T00:25:54.107Z,100448.38
2022-08-14T00:26:58.332Z,100440.30
2022-08-14T00:28:04.837Z,100436.68
2022-08-14T00:29:07.867Z,100439.48
2022-08-14T00:30:14.381Z,100431.91
2022-08-14T00:31:18.508Z,100436.36
2022-08-14T00:32:52.194Z,100439.48
2022-08-14T00:33:52.230Z,100442.28
2022-08-14T00:34:36.344Z,100443.94
2022-08-14T00:36:35.082Z,100440.30
2022-08-14T00:36:49.203Z,100440.30
2022-08-14T00:37:49.886Z,100433.88
2022-08-14T00:38:55.057Z,100444.25
2022-08-14T00:40:00.422Z,100440.63
2022-08-14T00:41:06.482Z,100441.45
2022-08-14T00:42:21.321Z,100443.42
2022-08-14T00:43:15.036Z,100438.97
2022-08-14T00:44:21.379Z,100440.63
2022-08-14T00:45:23.479Z,100439.80
2022-08-14T00:46:32.573Z,100440.63
2022-08-14T00:47:43.045Z,100447.37
2022-08-14T00:48:40.579Z,100439.80
2022-08-14T00:49:45.567Z,100438.97
2022-08-14T00:50:48.683Z,100442.95
2022-08-14T00:51:51.644Z,100440.16
2022-08-14T00:52:56.327Z,100442.95
2022-08-14T00:53:59.507Z,100442.12
2022-08-14T00:55:05.320Z,100434.55
2022-08-14T00:56:11.085Z,100440.16
2022-08-14T00:57:16.388Z,100436.53
2022-08-14T00:58:32.882Z,100437.67
2022-08-14T00:59:36.665Z,100434.88
2022-08-14T01:00:42.986Z,100434.05
2022-08-14T01:01:48.142Z,100437.99
2022-08-14T01:02:53.739Z,100427.95
2022-08-14T01:03:58.389Z,100430.74
2022-08-14T01:05:02.222Z,100429.12
2022-08-14T01:06:08.032Z,100430.74
2022-08-14T01:07:12.324Z,100430.27
2022-08-14T01:08:51.626Z,100430.27
2022-08-14T01:09:29.106Z,100431.09
2022-08-14T01:10:50.679Z,100434.21
2022-08-14T01:12:02.974Z,100426.96
2022-08-14T01:12:58.942Z,100430.08
2022-08-14T01:14:18.139Z,100427.28
2022-08-14T01:15:09.464Z,100428.46
2022-08-14T01:16:16.602Z,100439.66
2022-08-14T01:17:22.786Z,100442.45
2022-08-14T01:18:46.179Z,100437.17
2022-08-14T01:20:09.741Z,100438.83
2022-08-14T01:21:16.661Z,100435.52
2022-08-14T01:22:20.134Z,100439.47
2022-08-14T01:23:23.721Z,100436.51
2022-08-14T01:24:30.853Z,100436.51
2022-08-14T01:25:31.675Z,100434.53
2022-08-14T01:26:38.892Z,100438.48
2022-08-14T01:27:52.793Z,100434.03
2022-08-14T01:28:56.830Z,100437.97
2022-08-14T01:29:58.786Z,100439.95
2022-08-14T01:31:05.873Z,100443.92
2022-08-14T01:32:10.498Z,100440.30
2022-08-14T01:33:13.773Z,100437.50
2022-08-14T01:35:19.906Z,100442.27
2022-08-14T01:36:05.700Z,100437.50
2022-08-14T01:36:30.715Z,100435.02
2022-08-14T01:37:37.274Z,100434.19
2022-08-14T01:38:45.357Z,100439.78
2022-08-14T01:39:54.514Z,100439.78
2022-08-14T01:40:57.848Z,100436.67
2022-08-14T01:42:00.940Z,100440.61
2022-08-14T01:43:12.344Z,100438.92
2022-08-14T01:44:33.261Z,100438.92
2022-08-14T01:45:25.523Z,100437.27
2022-08-14T01:46:33.379Z,100433.65
2022-08-14T01:47:37.223Z,100436.45
2022-08-14T01:48:41.568Z,100441.25
2022-08-14T01:49:46.040Z,100437.63
2022-08-14T01:50:50.694Z,100436.80
2022-08-14T01:51:55.893Z,100435.97
2022-08-14T01:53:00.456Z,100439.59
2022-08-14T01:54:09.988Z,100440.42
2022-08-14T01:55:15.367Z,100436.80
2022-08-14T01:56:19.919Z,100445.51
2022-08-14T01:57:23.631Z,100439.91
2022-08-14T01:58:29.767Z,100441.06
2022-08-14T01:59:37.629Z,100441.88
2022-08-14T02:00:39.785Z,100435.46
2022-08-14T02:01:56.808Z,100439.41
2022-08-14T02:02:49.447Z,100443.03
2022-08-14T02:03:57.210Z,100445.34
2022-08-14T02:05:00.382Z,100441.72
2022-08-14T02:06:32.527Z,100446.49
2022-08-14T02:07:15.683Z,100448.47
2022-08-14T02:08:16.110Z,100446.81
2022-08-14T02:09:22.546Z,100446.81
2022-08-14T02:10:27.906Z,100444.02
2022-08-14T02:11:33.634Z,100445.16
2022-08-14T02:12:36.698Z,100442.36
2022-08-14T02:13:40.558Z,100444.33
2022-08-14T02:14:59.134Z,100443.50
2022-08-14T02:15:52.243Z,100442.70
2022-08-14T02:16:56.748Z,100443.50
2022-08-14T02:18:01.059Z,100449.92
2022-08-14T02:19:09.868Z,100453.90
2022-08-14T02:20:13.481Z,100449.09
2022-08-14T02:21:18.076Z,100456.69
2022-08-14T02:22:28.675Z,100446.30
2022-08-14T02:23:32.395Z,100443.85
2022-08-14T02:24:40.129Z,100445.83
2022-08-14T02:25:38.567Z,100450.59
2022-08-14T02:28:18.479Z,100454.22
2022-08-14T02:28:23.513Z,100451.73
2022-08-14T02:29:03.407Z,100457.64
2022-08-14T02:30:08.056Z,100454.84
2022-08-14T02:31:14.859Z,100458.82
2022-08-14T02:32:20.006Z,100461.11
2022-08-14T02:33:22.884Z,100465.05
2022-08-14T02:34:30.359Z,100465.05
2022-08-14T02:35:34.117Z,100463.39
2022-08-14T02:37:06.115Z,100466.19
2022-08-14T02:37:47.996Z,100466.54
2022-08-14T02:38:51.683Z,100462.91
2022-08-14T02:39:54.796Z,100459.29
2022-08-14T02:40:58.754Z,100467.99
2022-08-14T02:42:04.481Z,100466.34
2022-08-14T02:43:07.905Z,100462.72
2022-08-14T02:44:11.735Z,100463.86
2022-08-14T02:45:14.965Z,100456.64
2022-08-14T02:46:26.926Z,100460.58
2022-08-14T02:47:27.920Z,100468.14
2022-08-14T02:49:01.515Z,100469.29
2022-08-14T02:49:38.793Z,100455.62
2022-08-14T02:50:43.803Z,100466.81
2022-08-14T02:51:48.785Z,100469.12
2022-08-14T02:52:57.386Z,100459.08
2022-08-14T02:53:59.573Z,100464.67
2022-08-14T02:55:04.457Z,100462.19
2022-08-14T02:56:30.805Z,100474.52
2022-08-14T02:57:40.461Z,100463.33
2022-08-14T02:58:30.599Z,100468.09
2022-08-14T02:59:33.692Z,100465.65
2022-08-14T03:00:40.099Z,100464.82
2022-08-14T03:01:43.339Z,100471.24
2022-08-14T03:02:55.849Z,100464.82
2022-08-14T03:03:52.532Z,100461.20
2022-08-14T03:04:55.554Z,100463.17
2022-08-14T03:05:59.537Z,100466.80
2022-08-14T03:07:07.364Z,100457.27
2022-08-14T03:08:15.801Z,100467.94
2022-08-14T03:09:18.499Z,100460.37
2022-08-14T03:10:28.050Z,100460.37
2022-08-14T03:11:27.682Z,100463.17
2022-08-14T03:12:34.350Z,100461.52
2022-08-14T03:13:41.395Z,100463.48
2022-08-14T03:14:47.156Z,100467.11
2022-08-14T03:15:55.590Z,100464.66
2022-08-14T03:16:58.123Z,100463.48
2022-08-14T03:18:02.617Z,100460.69
2022-08-14T03:19:06.926Z,100465.45
2022-08-14T03:20:11.274Z,100472.70
2022-08-14T03:21:18.066Z,100460.69
2022-08-14T03:22:21.668Z,100466.63
2022-08-14T03:23:25.217Z,100464.66
2022-08-14T03:24:28.920Z,100466.28
2022-08-14T03:25:33.415Z,100466.28
2022-08-14T03:26:39.052Z,100468.25
2022-08-14T03:27:48.534Z,100470.73
2022-08-14T03:28:50.281Z,100463.99
2022-08-14T03:29:54.506Z,100462.03
2022-08-14T03:30:59.723Z,100457.27
2022-08-14T03:32:04.524Z,100464.16
2022-08-14T03:33:10.252Z,100456.60
2022-08-14T03:34:24.971Z,100467.47
2022-08-14T03:35:19.205Z,100460.73
2022-08-14T03:37:38.259Z,100460.39
2022-08-14T03:39:10.714Z,100465.98
2022-08-14T03:39:11.690Z,100460.07
2022-08-14T03:39:42.269Z,100461.73
2022-08-14T03:40:47.257Z,100461.41
2022-08-14T03:41:52.559Z,100453.84
2022-08-14T03:42:55.775Z,100457.47
2022-08-14T03:45:19.412Z,100455.16
2022-08-14T03:45:27.139Z,100454.84
2022-08-14T03:46:51.808Z,100456.49
2022-08-14T03:47:19.274Z,100453.70
2022-08-14T03:48:29.487Z,100453.34
2022-08-14T03:49:29.429Z,100460.59
2022-08-14T03:50:34.383Z,100451.06
2022-08-14T03:51:37.729Z,100453.54
2022-08-14T03:52:55.681Z,100454.37
2022-08-14T03:53:51.195Z,100458.82
2022-08-14T03:54:54.255Z,100451.22
2022-08-14T03:55:58.411Z,100454.53
2022-08-14T03:57:03.435Z,100443.34
2022-08-14T03:58:07.457Z,100452.24
2022-08-14T03:59:17.994Z,100445.50
2022-08-14T04:00:44.424Z,100456.69
2022-08-14T04:01:24.668Z,100446.30
2022-08-14T04:02:32.261Z,100458.00
2022-08-14T04:03:37.370Z,100463.59
2022-08-14T04:04:42.383Z,100464.10
2022-08-14T04:05:49.023Z,100456.19
2022-08-14T04:06:51.466Z,100448.31
2022-08-14T04:08:08.569Z,100457.20
2022-08-14T04:09:00.591Z,100457.69
2022-08-14T04:10:05.027Z,100454.89
2022-08-14T04:11:10.339Z,100452.62
2022-08-14T04:12:13.751Z,100453.94
2022-08-14T04:13:17.714Z,100456.41
2022-08-14T04:14:20.776Z,100443.25
2022-08-14T04:15:26.289Z,100452.98
2022-08-14T04:16:31.566Z,100452.62
2022-08-14T04:17:34.146Z,100453.97
2022-08-14T04:18:42.818Z,100458.41
2022-08-14T04:19:46.814Z,100454.13
2022-08-14T04:20:54.877Z,100451.00
2022-08-14T04:22:03.363Z,100462.70
2022-08-14T04:23:01.311Z,100463.19
2022-08-14T04:24:05.567Z,100458.41
2022-08-14T04:25:10.388Z,100459.75
2022-08-14T04:26:27.014Z,100460.57
2022-08-14T04:27:23.599Z,100461.88
2022-08-14T04:29:06.944Z,100461.05
2022-08-14T04:29:32.630Z,100463.02
2022-08-14T04:30:37.920Z,100463.02
2022-08-14T04:32:59.275Z,100467.47
2022-08-14T04:33:01.779Z,100467.47
2022-08-14T04:33:54.430Z,100473.07
2022-08-14T04:34:57.826Z,100467.47
2022-08-14T04:36:01.840Z,100468.30
2022-08-14T04:37:25.647Z,100461.05
2022-08-14T04:38:47.411Z,100471.09
2022-08-14T04:40:09.146Z,100467.47
2022-08-14T04:41:32.163Z,100466.33
2022-08-14T04:42:53.551Z,100463.84
2022-08-14T04:43:56.761Z,100460.22
2022-08-14T04:45:00.689Z,100453.80
2022-08-14T04:46:07.296Z,100459.39
2022-08-14T04:47:30.842Z,100464.16
2022-08-14T04:48:43.254Z,100459.39
2022-08-14T04:49:46.519Z,100455.77
2022-08-14T04:50:53.995Z,100462.55
2022-08-14T04:51:55.886Z,100460.57
2022-08-14T04:52:58.823Z,100467.80
2022-08-14T04:54:01.854Z,100458.56
2022-08-14T04:55:06.954Z,100461.36
2022-08-14T04:56:31.213Z,100459.75
2022-08-14T04:57:17.840Z,100457.77
2022-08-14T04:58:32.989Z,100458.56
2022-08-14T04:59:30.688Z,100464.99
2022-08-14T05:00:33.941Z,100456.59
2022-08-14T05:01:39.946Z,100466.64
2022-08-14T05:02:43.309Z,100471.92
2022-08-14T05:03:49.146Z,100465.50
2022-08-14T05:04:57.139Z,100463.53
2022-08-14T05:06:01.032Z,100464.35
2022-08-14T05:07:04.026Z,100463.20
2022-08-14T05:08:11.357Z,100467.63
2022-08-14T05:09:16.331Z,100461.70
2022-08-14T05:10:24.820Z,100461.39
2022-08-14T05:11:30.252Z,100461.06
2022-08-14T05:13:12.997Z,100462.69
2022-08-14T05:13:59.498Z,100456.77
2022-08-14T05:14:53.728Z,100455.62
2022-08-14T05:15:51.889Z,100472.92
2022-08-14T05:17:01.715Z,100468.63
2022-08-14T05:18:17.344Z,100462.70
2022-08-14T05:19:17.784Z,100461.56
2022-08-14T05:21:05.032Z,100461.20
2022-08-14T05:22:00.516Z,100464.52
2022-08-14T05:22:31.300Z,100465.02
2022-08-14T05:23:37.302Z,100471.09
2022-08-14T05:24:40.580Z,100467.97
2022-08-14T05:25:45.007Z,100472.42
2022-08-14T05:26:49.026Z,100467.33
2022-08-14T05:27:55.705Z,100473.41
2022-08-14T05:28:58.865Z,100475.05
2022-08-14T05:30:04.925Z,100466.36
2022-08-14T05:31:08.057Z,100466.36
2022-08-14T05:32:13.257Z,100472.44
2022-08-14T05:33:20.528Z,100466.84
2022-08-14T05:34:28.636Z,100474.92
2022-08-14T05:35:32.146Z,100475.75
2022-08-14T05:36:36.874Z,100477.40
2022-08-14T05:37:46.175Z,100470.64
2022-08-14T05:38:47.892Z,100475.07
2022-08-14T05:39:50.999Z,100475.07
2022-08-14T05:40:54.271Z,100462.72
2022-08-14T05:41:57.224Z,100480.03
2022-08-14T05:43:00.406Z,100474.89
2022-08-14T05:44:05.183Z,100472.92
2022-08-14T05:45:11.194Z,100474.58
2022-08-14T05:46:23.649Z,100475.08
2022-08-14T05:47:28.913Z,100477.20
2022-08-14T05:48:33.635Z,100474.08
2022-08-14T05:49:38.211Z,100472.10
2022-08-14T05:50:42.161Z,100470.59
2022-08-14T05:51:46.504Z,100473.40
2022-08-14T05:52:50.880Z,100472.25
2022-08-14T05:54:01.390Z,100470.27
2022-08-14T05:54:59.114Z,100465.17
2022-08-14T05:56:01.996Z,100464.84
2022-08-14T05:57:06.053Z,100466.47
2022-08-14T05:58:09.113Z,100473.73
2022-08-14T05:59:12.987Z,100465.83
2022-08-14T06:00:29.011Z,100461.52
2022-08-14T06:01:27.114Z,100460.04
2022-08-14T06:02:32.559Z,100463.67
2022-08-14T06:03:36.473Z,100458.53
2022-08-14T06:04:39.538Z,100461.33
2022-08-14T06:05:47.961Z,100457.38
2022-08-14T06:06:53.091Z,100452.28
2022-08-14T06:07:59.847Z,100455.91
2022-08-14T06:09:03.122Z,100450.30
2022-08-14T06:10:08.125Z,100456.73
2022-08-14T06:11:14.919Z,100459.17
2022-08-14T06:12:31.718Z,100453.57
2022-08-14T06:13:20.964Z,100452.42
2022-08-14T06:14:24.300Z,100445.98
2022-08-14T06:15:30.317Z,100459.67
2022-08-14T06:16:33.079Z,100454.07
2022-08-14T06:17:55.885Z,100458.20
2022-08-14T06:18:53.433Z,100451.41
2022-08-14T06:19:56.465Z,100453.89
2022-08-14T06:21:00.186Z,100447.95
2022-08-14T06:22:03.558Z,100454.39
2022-08-14T06:23:06.625Z,100453.23
2022-08-14T06:24:10.340Z,100448.42
2022-08-14T06:25:16.161Z,100448.42
2022-08-14T06:26:22.143Z,100448.42
2022-08-14T06:27:25.429Z,100449.25
2022-08-14T06:28:30.724Z,100450.91
2022-08-14T06:29:35.015Z,100448.92
2022-08-14T06:30:46.019Z,100448.10
2022-08-14T06:31:44.238Z,100449.75
2022-08-14T06:32:52.655Z,100445.30
2022-08-14T06:35:03.398Z,100448.59
2022-08-14T06:35:04.355Z,100446.63
2022-08-14T06:36:03.305Z,100446.27
2022-08-14T06:37:06.270Z,100447.95
2022-08-14T06:38:17.683Z,100445.64
2022-08-14T06:39:21.910Z,100445.64
2022-08-14T06:40:34.215Z,100437.73
2022-08-14T06:41:57.953Z,100439.34
2022-08-14T06:42:47.281Z,100453.87
2022-08-14T06:43:50.152Z,100442.33
2022-08-14T06:44:53.110Z,100449.22
2022-08-14T06:45:57.137Z,100441.64
2022-08-14T06:47:03.938Z,100450.55
2022-08-14T06:48:22.628Z,100447.42
2022-08-14T06:49:26.612Z,100448.70
2022-08-14T06:50:31.458Z,100455.64
2022-08-14T06:51:38.620Z,100450.50
2022-08-14T06:52:50.346Z,100450.99
2022-08-14T06:53:48.006Z,100447.17
2022-08-14T06:54:51.403Z,100448.83
2022-08-14T06:56:00.578Z,100452.12
2022-08-14T06:57:02.512Z,100450.61
2022-08-14T06:58:08.445Z,100452.76
2022-08-14T06:59:19.966Z,100449.27
2022-08-14T07:00:26.915Z,100451.73
2022-08-14T07:01:48.069Z,100459.46
2022-08-14T07:03:12.302Z,100452.37
2022-08-14T07:04:34.118Z,100450.02
2022-08-14T07:05:57.627Z,100454.16
2022-08-14T07:06:59.101Z,100447.38
2022-08-14T07:08:00.534Z,100446.20
2022-08-14T07:09:04.417Z,100444.22
2022-08-14T07:10:16.815Z,100439.09
2022-08-14T07:11:14.045Z,100441.91
2022-08-14T07:12:55.053Z,100436.79
2022-08-14T07:13:23.839Z,100429.53
2022-08-14T07:14:26.828Z,100427.55
2022-08-14T07:15:29.805Z,100432.00
2022-08-14T07:16:36.005Z,100430.84
2022-08-14T07:17:52.094Z,100424.91
2022-08-14T07:18:55.837Z,100417.31
2022-08-14T07:19:59.005Z,100425.73
2022-08-14T07:21:04.782Z,100426.55
2022-08-14T07:22:17.678Z,100437.78
2022-08-14T07:23:20.834Z,100432.98
2022-08-14T07:24:21.883Z,100432.98
2022-08-14T07:25:25.989Z,100427.37
2022-08-14T07:26:29.655Z,100425.39
2022-08-14T07:27:33.501Z,100430.64
2022-08-14T07:28:42.979Z,100428.66
2022-08-14T07:29:44.867Z,100427.51
2022-08-14T07:30:51.000Z,100436.42
2022-08-14T07:31:53.708Z,100418.42
2022-08-14T07:32:56.760Z,100427.30
2022-08-14T07:33:59.750Z,100419.38
2022-08-14T07:35:03.431Z,100421.48
2022-08-14T07:36:26.314Z,100422.47
2022-08-14T07:37:15.001Z,100417.81
2022-08-14T07:38:20.044Z,100420.41
2022-08-14T07:39:27.645Z,100406.16
2022-08-14T07:40:29.894Z,100408.77
2022-08-14T07:41:35.912Z,100413.83
2022-08-14T07:42:38.483Z,100415.27
2022-08-14T07:43:47.431Z,100411.42
2022-08-14T07:44:50.680Z,100405.63
2022-08-14T07:45:54.218Z,100403.42
2022-08-14T07:46:57.527Z,100404.03
2022-08-14T07:48:00.957Z,100411.78
2022-08-14T07:49:05.114Z,100412.36
2022-08-14T07:50:20.206Z,100408.05
2022-08-14T07:51:23.496Z,100397.75
2022-08-14T07:52:30.613Z,100402.70
2022-08-14T07:53:39.191Z,100406.45
2022-08-14T07:54:40.925Z,100402.59
2022-08-14T07:55:46.032Z,100395.92
2022-08-14T07:56:53.895Z,100402.51
2022-08-14T07:57:55.984Z,100401.45
2022-08-14T07:59:00.688Z,100400.44
2022-08-14T08:00:12.131Z,100401.38
2022-08-14T08:01:18.387Z,100401.52
2022-08-14T08:02:21.990Z,100403.27
2022-08-14T08:03:28.075Z,100412.16
2022-08-14T08:04:34.062Z,100405.03
2022-08-14T08:05:39.444Z,100401.51
2022-08-14T08:06:43.128Z,100395.55
2022-08-14T08:07:47.695Z,100397.19
2022-08-14T08:09:01.348Z,100400.83
2022-08-14T08:10:08.906Z,100402.47
2022-08-14T08:11:15.274Z,100394.86
2022-08-14T08:12:20.268Z,100394.86
2022-08-14T08:13:24.504Z,100388.41
2022-08-14T08:14:28.486Z,100395.66
2022-08-14T08:15:35.930Z,100391.67
2022-08-14T08:16:39.721Z,100384.06
2022-08-14T08:17:53.733Z,100394.14
2022-08-14T08:18:47.768Z,100390.16
2022-08-14T08:19:51.538Z,100384.54
2022-08-14T08:20:55.211Z,100389.00
2022-08-14T08:22:02.130Z,100380.56
2022-08-14T08:23:06.725Z,100380.56
2022-08-14T08:24:09.923Z,100383.37
2022-08-14T08:25:14.084Z,100382.55
2022-08-14T08:26:19.626Z,100382.55
2022-08-14T08:27:22.579Z,100384.54
2022-08-14T08:28:27.694Z,100382.55
2022-08-14T08:29:31.580Z,100374.45
2022-08-14T08:30:49.282Z,100380.08
2022-08-14T08:31:51.138Z,100373.63
2022-08-14T08:32:56.629Z,100381.25
2022-08-14T08:34:01.843Z,100381.59
2022-08-14T08:35:05.500Z,100371.53
2022-08-14T08:36:12.751Z,100381.97
2022-08-14T08:37:15.865Z,100385.94
2022-08-14T08:39:17.927Z,100373.87
2022-08-14T08:39:42.230Z,100377.84
2022-08-14T08:40:42.451Z,100378.67
2022-08-14T08:41:44.909Z,100373.05
2022-08-14T08:42:53.134Z,100378.67
2022-08-14T08:43:53.491Z,100378.33
2022-08-14T08:44:56.982Z,100373.16
2022-08-14T08:46:08.712Z,100367.19
2022-08-14T08:47:14.867Z,100366.84
2022-08-14T08:48:20.839Z,100369.31
2022-08-14T08:49:22.919Z,100375.05
2022-08-14T08:51:37.867Z,100366.37
2022-08-14T08:52:51.302Z,100369.77
2022-08-14T08:54:03.177Z,100365.89
2022-08-14T08:55:06.854Z,100374.46
2022-08-14T08:56:30.092Z,100374.25
2022-08-14T08:57:18.464Z,100373.53
2022-08-14T08:58:25.208Z,100355.95
2022-08-14T08:59:34.110Z,100367.66
2022-08-14T09:00:38.985Z,100367.31
2022-08-14T09:01:52.322Z,100362.51
2022-08-14T09:02:59.180Z,100368.14
2022-08-14T09:04:03.650Z,100364.16
2022-08-14T09:05:08.959Z,100365.77
2022-08-14T09:06:53.989Z,100366.97
2022-08-14T09:07:19.085Z,100356.88
2022-08-14T09:08:31.626Z,100362.51
2022-08-14T09:09:34.344Z,100366.49
2022-08-14T09:10:39.275Z,100359.22
2022-08-14T09:11:42.942Z,100367.21
2022-08-14T09:12:46.978Z,100357.47
2022-08-14T09:13:53.862Z,100356.99
2022-08-14T09:14:57.101Z,100359.36
2022-08-14T09:16:01.393Z,100365.64
2022-08-14T09:17:06.662Z,100370.00
2022-08-14T09:18:11.154Z,100355.80
2022-08-14T09:19:15.658Z,100360.16
2022-08-14T09:20:26.267Z,100356.05
2022-08-14T09:21:31.108Z,100357.59
2022-08-14T09:22:35.906Z,100348.67
2022-08-14T09:24:25.877Z,100352.65
2022-08-14T09:24:46.982Z,100351.03
2022-08-14T09:26:00.141Z,100352.65
2022-08-14T09:26:57.583Z,100361.09
2022-08-14T09:28:01.984Z,100355.45
2022-08-14T09:29:07.314Z,100353.95
2022-08-14T09:30:30.958Z,100347.98
2022-08-14T09:31:18.422Z,100351.23
2022-08-14T09:32:57.666Z,100350.55
2022-08-14T09:33:56.553Z,100356.28
2022-08-14T09:35:08.378Z,100353.13
2022-08-14T09:36:18.515Z,100354.39
2022-08-14T09:37:46.084Z,100348.11
2022-08-14T09:39:28.890Z,100353.02
2022-08-14T09:40:53.105Z,100335.44
2022-08-14T09:42:31.725Z,100337.88
2022-08-14T09:43:45.718Z,100347.27
2022-08-14T09:45:02.933Z,100336.84
2022-08-14T09:46:08.624Z,100344.91
2022-08-14T09:47:14.810Z,100343.73
2022-08-14T09:48:20.487Z,100343.39
2022-08-14T09:49:34.135Z,100345.03
2022-08-14T09:50:50.769Z,100341.02
2022-08-14T09:51:58.840Z,100335.86
2022-08-14T09:53:17.750Z,100344.41
2022-08-14T09:54:19.585Z,100338.08
2022-08-14T09:55:18.155Z,100335.36
2022-08-14T09:56:24.273Z,100330.68
2022-08-14T09:57:32.287Z,100339.70
2022-08-14T09:58:42.193Z,100336.63
2022-08-14T09:59:50.376Z,100332.38
2022-08-14T10:00:57.734Z,100322.51
2022-08-14T10:02:02.732Z,100334.72
2022-08-14T10:03:06.966Z,100337.27
2022-08-14T10:05:06.524Z,100322.05
2022-08-14T10:06:17.216Z,100327.83
2022-08-14T10:07:25.666Z,100322.67
2022-08-14T10:08:32.470Z,100322.31
2022-08-14T10:09:59.944Z,100321.11
2022-08-14T10:11:01.612Z,100329.22
2022-08-14T10:11:59.562Z,100329.22
2022-08-14T10:13:05.564Z,100322.41
2022-08-14T10:14:29.466Z,100325.70
2022-08-14T10:15:25.785Z,100323.31
2022-08-14T10:16:35.555Z,100318.16
2022-08-14T10:17:39.732Z,100322.23
2022-08-14T10:18:43.462Z,100323.52
2022-08-14T10:19:49.488Z,100323.99
2022-08-14T10:21:00.092Z,100328.89
2022-08-14T10:23:15.141Z,100327.72
2022-08-14T10:23:18.339Z,100327.36
2022-08-14T10:24:39.603Z,100329.80
2022-08-14T10:25:50.153Z,100331.09
2022-08-14T10:27:00.181Z,100326.27
2022-08-14T10:28:00.319Z,100324.28
2022-08-14T10:29:19.803Z,100328.73
2022-08-14T10:30:22.260Z,100318.26
2022-08-14T10:31:25.651Z,100326.71
2022-08-14T10:32:40.274Z,100321.08
2022-08-14T10:33:35.051Z,100326.71
2022-08-14T10:34:40.147Z,100314.65
2022-08-14T10:35:47.776Z,100326.71
2022-08-14T10:37:02.217Z,100322.72
2022-08-14T10:37:54.678Z,100323.54
2022-08-14T10:39:02.991Z,100325.53
2022-08-14T10:40:32.514Z,100318.73
2022-08-14T10:41:15.121Z,100318.73
2022-08-14T10:42:21.243Z,100317.55
2022-08-14T10:43:25.484Z,100317.91
2022-08-14T10:44:38.121Z,100322.37
2022-08-14T10:45:59.565Z,100317.55
2022-08-14T10:47:39.513Z,100316.41
2022-08-14T10:48:07.499Z,100317.55
2022-08-14T10:49:08.529Z,100316.41
2022-08-14T10:50:15.038Z,100312.41
2022-08-14T10:51:21.941Z,100316.02
2022-08-14T10:52:30.286Z,100309.20
2022-08-14T10:53:36.724Z,100307.21
2022-08-14T10:54:44.593Z,100308.03
2022-08-14T10:55:53.030Z,100307.68
2022-08-14T10:57:01.317Z,100307.68
2022-08-14T10:58:10.158Z,100316.13
2022-08-14T10:59:13.279Z,100307.68
2022-08-14T11:00:20.692Z,100315.75
2022-08-14T11:01:27.884Z,100310.94
2022-08-14T11:02:50.166Z,100318.22
2022-08-14T11:03:56.336Z,100313.40
2022-08-14T11:05:05.046Z,100319.86
2022-08-14T11:06:19.179Z,100316.69
2022-08-14T11:07:22.292Z,100311.40
2022-08-14T11:08:32.816Z,100304.59
2022-08-14T11:09:37.134Z,100311.40
2022-08-14T11:10:56.929Z,100323.50
2022-08-14T11:12:35.105Z,100320.68
2022-08-14T11:13:06.549Z,100319.86
2022-08-14T11:14:09.788Z,100313.40
2022-08-14T11:15:20.103Z,100318.22
2022-08-14T11:16:24.536Z,100319.86
2022-08-14T11:17:32.353Z,100321.50
2022-08-14T11:18:40.315Z,100317.86
2022-08-14T11:19:41.965Z,100313.05
2022-08-14T11:20:56.247Z,100310.22
2022-08-14T11:22:00.429Z,100317.12
2022-08-14T11:23:05.304Z,100320.41
2022-08-14T11:24:50.821Z,100320.88
2022-08-14T11:25:19.839Z,100320.13
2022-08-14T11:26:27.447Z,100316.96
2022-08-14T11:27:33.262Z,100312.58
2022-08-14T11:28:46.906Z,100312.22
2022-08-14T11:29:47.715Z,100312.69
2022-08-14T11:30:57.818Z,100306.66
2022-08-14T11:32:03.673Z,100320.41
2022-08-14T11:33:07.111Z,100305.95
2022-08-14T11:34:30.316Z,100308.41
2022-08-14T11:35:20.695Z,100314.48
2022-08-14T11:36:35.069Z,100314.95
2022-08-14T11:37:40.611Z,100312.95
2022-08-14T11:38:40.195Z,100310.56
2022-08-14T11:39:45.593Z,100296.47
2022-08-14T11:40:49.110Z,100298.92
2022-08-14T11:41:55.684Z,100311.85
2022-08-14T11:42:59.515Z,100305.39
2022-08-14T11:44:02.949Z,100307.39
2022-08-14T11:45:11.047Z,100303.39
2022-08-14T11:46:17.989Z,100301.75
2022-08-14T11:47:21.405Z,100301.75
2022-08-14T11:49:02.261Z,100294.92
2022-08-14T11:49:34.090Z,100296.57
2022-08-14T11:50:38.221Z,100300.57
2022-08-14T11:51:53.616Z,100294.92
2022-08-14T11:52:46.878Z,100296.57
2022-08-14T11:53:57.988Z,100286.93
2022-08-14T11:55:01.604Z,100289.75
2022-08-14T11:56:06.796Z,100290.58
2022-08-14T11:57:18.816Z,100293.39
2022-08-14T11:58:27.801Z,100294.18
2022-08-14T11:59:34.108Z,100292.18
2022-08-14T12:00:49.527Z,100286.19
2022-08-14T12:01:52.837Z,100288.19
2022-08-14T12:03:03.331Z,100287.83
2022-08-14T12:04:32.837Z,100286.64
2022-08-14T12:05:36.108Z,100290.29
2022-08-14T12:06:53.345Z,100283.44
2022-08-14T12:07:58.828Z,100288.72
2022-08-14T12:09:03.134Z,100287.90
2022-08-14T12:10:26.605Z,100275.80
2022-08-14T12:11:14.725Z,100280.62
2022-08-14T12:12:35.594Z,100281.44
2022-08-14T12:13:34.777Z,100287.90
2022-08-14T12:14:56.375Z,100285.47
2022-08-14T12:16:11.244Z,100282.65
2022-08-14T12:17:14.358Z,100287.47
2022-08-14T12:18:22.800Z,100289.47
2022-08-14T12:19:27.777Z,100284.19
2022-08-14T12:20:45.992Z,100284.55
2022-08-14T12:21:48.230Z,100278.08
2022-08-14T12:22:52.558Z,100292.18
2022-08-14T12:24:08.538Z,100291.75
2022-08-14T12:25:14.922Z,100286.83
2022-08-14T12:26:39.241Z,100287.21
2022-08-14T12:27:52.769Z,100281.93
2022-08-14T12:29:00.116Z,100281.47
2022-08-14T12:29:56.577Z,100289.49
2022-08-14T12:31:02.318Z,100289.84
2022-08-14T12:32:06.722Z,100296.66
2022-08-14T12:33:31.220Z,100296.20
2022-08-14T12:34:33.851Z,100296.59
2022-08-14T12:35:40.073Z,100291.30
2022-08-14T12:36:43.152Z,100294.48
2022-08-14T12:37:50.762Z,100289.66
2022-08-14T12:38:54.824Z,100303.77
2022-08-14T12:41:24.116Z,100294.75
2022-08-14T12:42:41.788Z,100294.48